sensor_id;sensor_type;location;lat;lon;timestamp;P1;durP1;ratioP1;P2;durP2;ratioP2
3941;SDS011;1985;48.592;8.850;2023-07-08T00:00:21;15.48;;;5.30;;
3941;SDS011;1985;48.592;8.850;2023-07-08T00:02:48;14.23;;;5.18;;
3941;SDS011;1985;48.592;8.850;2023-07-08T00:05:14;15.43;;;5.20;;
3941;SDS011;1985;48.592;8.850;2023-07-08T00:07:41;15.30;;;4.82;;
3941;SDS011;1985;48.592;8.850;2023-07-08T00:12:41;15.15;;;4.68;;
3941;SDS011;1985;48.592;8.850;2023-07-08T00:15:08;14.90;;;5.20;;
3941;SDS011;1985;48.592;8.850;2023-07-08T00:17:34;18.95;;;5.28;;
3941;SDS011;1985;48.592;8.850;2023-07-08T00:20:00;14.37;;;4.87;;
3941;SDS011;1985;48.592;8.850;2023-07-08T00:22:26;14.02;;;5.30;;
3941;SDS011;1985;48.592;8.850;2023-07-08T00:24:51;14.27;;;4.20;;
3941;SDS011;1985;48.592;8.850;2023-07-08T00:27:17;18.42;;;5.10;;
3941;SDS011;1985;48.592;8.850;2023-07-08T00:29:42;14.10;;;5.00;;
3941;SDS011;1985;48.592;8.850;2023-07-08T00:32:13;14.87;;;5.40;;
3941;SDS011;1985;48.592;8.850;2023-07-08T00:34:40;14.30;;;4.72;;
3941;SDS011;1985;48.592;8.850;2023-07-08T00:37:13;14.27;;;5.00;;
3941;SDS011;1985;48.592;8.850;2023-07-08T00:39:39;13.45;;;5.20;;
3941;SDS011;1985;48.592;8.850;2023-07-08T00:42:24;14.18;;;5.15;;
3941;SDS011;1985;48.592;8.850;2023-07-08T00:44:50;15.02;;;5.07;;
3941;SDS011;1985;48.592;8.850;2023-07-08T00:47:16;15.25;;;5.20;;
3941;SDS011;1985;48.592;8.850;2023-07-08T00:49:55;15.40;;;5.18;;
3941;SDS011;1985;48.592;8.850;2023-07-08T00:54:53;14.23;;;4.73;;
3941;SDS011;1985;48.592;8.850;2023-07-08T00:57:22;13.52;;;4.75;;
3941;SDS011;1985;48.592;8.850;2023-07-08T00:59:59;15.15;;;4.80;;
3941;SDS011;1985;48.592;8.850;2023-07-08T01:02:29;15.55;;;4.88;;
3941;SDS011;1985;48.592;8.850;2023-07-08T01:05:01;14.63;;;5.45;;
3941;SDS011;1985;48.592;8.850;2023-07-08T01:07:32;14.13;;;5.15;;
3941;SDS011;1985;48.592;8.850;2023-07-08T01:10:09;14.70;;;5.10;;
3941;SDS011;1985;48.592;8.850;2023-07-08T01:12:42;13.18;;;4.88;;
3941;SDS011;1985;48.592;8.850;2023-07-08T01:15:11;14.13;;;4.78;;
3941;SDS011;1985;48.592;8.850;2023-07-08T01:17:37;12.88;;;4.90;;
3941;SDS011;1985;48.592;8.850;2023-07-08T01:20:03;15.13;;;5.50;;
3941;SDS011;1985;48.592;8.850;2023-07-08T01:22:38;13.95;;;4.90;;
3941;SDS011;1985;48.592;8.850;2023-07-08T01:25:05;17.88;;;5.38;;
3941;SDS011;1985;48.592;8.850;2023-07-08T01:27:35;14.57;;;4.90;;
3941;SDS011;1985;48.592;8.850;2023-07-08T01:30:04;17.40;;;5.90;;
3941;SDS011;1985;48.592;8.850;2023-07-08T01:32:31;14.82;;;5.95;;
3941;SDS011;1985;48.592;8.850;2023-07-08T01:35:10;15.40;;;5.50;;
3941;SDS011;1985;48.592;8.850;2023-07-08T01:37:40;12.55;;;4.95;;
3941;SDS011;1985;48.592;8.850;2023-07-08T01:42:59;13.18;;;5.00;;
3941;SDS011;1985;48.592;8.850;2023-07-08T01:45:26;14.55;;;5.30;;
3941;SDS011;1985;48.592;8.850;2023-07-08T01:50:32;13.45;;;5.20;;
3941;SDS011;1985;48.592;8.850;2023-07-08T01:53:05;13.50;;;5.50;;
3941;SDS011;1985;48.592;8.850;2023-07-08T01:55:36;13.93;;;5.30;;
3941;SDS011;1985;48.592;8.850;2023-07-08T01:58:02;13.77;;;5.07;;
3941;SDS011;1985;48.592;8.850;2023-07-08T02:00:28;13.80;;;5.20;;
3941;SDS011;1985;48.592;8.850;2023-07-08T02:02:53;14.80;;;5.03;;
3941;SDS011;1985;48.592;8.850;2023-07-08T02:05:19;15.40;;;5.10;;
3941;SDS011;1985;48.592;8.850;2023-07-08T02:07:45;13.87;;;5.07;;
3941;SDS011;1985;48.592;8.850;2023-07-08T02:10:11;14.50;;;5.38;;
3941;SDS011;1985;48.592;8.850;2023-07-08T02:12:36;15.00;;;5.37;;
3941;SDS011;1985;48.592;8.850;2023-07-08T02:15:02;14.93;;;5.50;;
3941;SDS011;1985;48.592;8.850;2023-07-08T02:17:28;18.20;;;6.10;;
3941;SDS011;1985;48.592;8.850;2023-07-08T02:19:54;13.37;;;4.60;;
3941;SDS011;1985;48.592;8.850;2023-07-08T02:22:21;15.55;;;5.45;;
3941;SDS011;1985;48.592;8.850;2023-07-08T02:24:47;15.73;;;5.50;;
3941;SDS011;1985;48.592;8.850;2023-07-08T02:27:13;14.50;;;4.90;;
3941;SDS011;1985;48.592;8.850;2023-07-08T02:29:39;15.48;;;5.75;;
3941;SDS011;1985;48.592;8.850;2023-07-08T02:32:05;15.65;;;6.05;;
3941;SDS011;1985;48.592;8.850;2023-07-08T02:34:31;14.63;;;5.70;;
3941;SDS011;1985;48.592;8.850;2023-07-08T02:36:57;14.57;;;4.70;;
3941;SDS011;1985;48.592;8.850;2023-07-08T02:39:22;14.67;;;5.83;;
3941;SDS011;1985;48.592;8.850;2023-07-08T02:41:48;15.13;;;5.60;;
3941;SDS011;1985;48.592;8.850;2023-07-08T02:44:14;14.55;;;5.03;;
3941;SDS011;1985;48.592;8.850;2023-07-08T02:46:40;15.82;;;5.65;;
3941;SDS011;1985;48.592;8.850;2023-07-08T02:49:05;15.83;;;5.40;;
3941;SDS011;1985;48.592;8.850;2023-07-08T02:51:32;15.90;;;5.10;;
3941;SDS011;1985;48.592;8.850;2023-07-08T02:53:57;13.67;;;4.57;;
3941;SDS011;1985;48.592;8.850;2023-07-08T02:56:23;15.88;;;5.70;;
3941;SDS011;1985;48.592;8.850;2023-07-08T02:58:51;14.20;;;5.10;;
3941;SDS011;1985;48.592;8.850;2023-07-08T03:01:17;14.23;;;5.28;;
3941;SDS011;1985;48.592;8.850;2023-07-08T03:03:46;19.00;;;5.20;;
3941;SDS011;1985;48.592;8.850;2023-07-08T03:06:12;15.10;;;5.28;;
3941;SDS011;1985;48.592;8.850;2023-07-08T03:08:38;14.77;;;5.15;;
3941;SDS011;1985;48.592;8.850;2023-07-08T03:11:05;14.77;;;5.10;;
3941;SDS011;1985;48.592;8.850;2023-07-08T03:13:32;17.67;;;5.22;;
3941;SDS011;1985;48.592;8.850;2023-07-08T03:15:59;15.75;;;5.88;;
3941;SDS011;1985;48.592;8.850;2023-07-08T03:18:27;15.90;;;6.30;;
3941;SDS011;1985;48.592;8.850;2023-07-08T03:20:54;15.35;;;5.68;;
3941;SDS011;1985;48.592;8.850;2023-07-08T03:23:24;14.50;;;5.18;;
3941;SDS011;1985;48.592;8.850;2023-07-08T03:25:51;16.42;;;5.60;;
3941;SDS011;1985;48.592;8.850;2023-07-08T03:28:17;14.93;;;6.00;;
3941;SDS011;1985;48.592;8.850;2023-07-08T03:30:43;14.10;;;5.50;;
3941;SDS011;1985;48.592;8.850;2023-07-08T03:33:10;14.40;;;5.13;;
3941;SDS011;1985;48.592;8.850;2023-07-08T03:35:36;16.67;;;6.03;;
3941;SDS011;1985;48.592;8.850;2023-07-08T03:38:03;15.80;;;5.55;;
3941;SDS011;1985;48.592;8.850;2023-07-08T03:40:29;14.57;;;4.85;;
3941;SDS011;1985;48.592;8.850;2023-07-08T03:42:55;13.73;;;5.10;;
3941;SDS011;1985;48.592;8.850;2023-07-08T03:45:20;16.48;;;5.32;;
3941;SDS011;1985;48.592;8.850;2023-07-08T03:47:46;15.80;;;5.85;;
3941;SDS011;1985;48.592;8.850;2023-07-08T03:50:16;15.23;;;5.40;;
3941;SDS011;1985;48.592;8.850;2023-07-08T03:52:45;15.20;;;5.87;;
3941;SDS011;1985;48.592;8.850;2023-07-08T03:55:12;14.25;;;5.10;;
3941;SDS011;1985;48.592;8.850;2023-07-08T03:57:37;13.93;;;5.50;;
3941;SDS011;1985;48.592;8.850;2023-07-08T04:00:03;15.95;;;5.50;;
3941;SDS011;1985;48.592;8.850;2023-07-08T04:02:29;13.98;;;5.32;;
3941;SDS011;1985;48.592;8.850;2023-07-08T04:04:55;17.05;;;6.35;;
3941;SDS011;1985;48.592;8.850;2023-07-08T04:07:20;15.30;;;5.00;;
3941;SDS011;1985;48.592;8.850;2023-07-08T04:09:46;16.77;;;5.33;;
3941;SDS011;1985;48.592;8.850;2023-07-08T04:12:15;14.60;;;5.55;;
3941;SDS011;1985;48.592;8.850;2023-07-08T04:14:41;17.05;;;5.80;;
3941;SDS011;1985;48.592;8.850;2023-07-08T04:17:08;14.40;;;5.15;;
3941;SDS011;1985;48.592;8.850;2023-07-08T04:19:34;16.63;;;5.70;;
3941;SDS011;1985;48.592;8.850;2023-07-08T04:22:01;14.90;;;5.60;;
3941;SDS011;1985;48.592;8.850;2023-07-08T04:24:27;17.97;;;5.87;;
3941;SDS011;1985;48.592;8.850;2023-07-08T04:26:53;16.27;;;6.93;;
3941;SDS011;1985;48.592;8.850;2023-07-08T04:29:20;16.58;;;5.85;;
3941;SDS011;1985;48.592;8.850;2023-07-08T04:31:46;15.18;;;5.75;;
3941;SDS011;1985;48.592;8.850;2023-07-08T04:34:12;16.10;;;6.03;;
3941;SDS011;1985;48.592;8.850;2023-07-08T04:36:39;18.40;;;6.82;;
3941;SDS011;1985;48.592;8.850;2023-07-08T04:39:05;16.20;;;6.20;;
3941;SDS011;1985;48.592;8.850;2023-07-08T04:41:32;16.67;;;6.15;;
3941;SDS011;1985;48.592;8.850;2023-07-08T04:43:58;18.47;;;6.43;;
3941;SDS011;1985;48.592;8.850;2023-07-08T04:49:00;16.83;;;5.95;;
3941;SDS011;1985;48.592;8.850;2023-07-08T04:51:26;16.95;;;6.35;;
3941;SDS011;1985;48.592;8.850;2023-07-08T04:53:52;16.87;;;6.40;;
3941;SDS011;1985;48.592;8.850;2023-07-08T04:56:17;17.23;;;5.20;;
3941;SDS011;1985;48.592;8.850;2023-07-08T04:58:44;17.27;;;5.60;;
3941;SDS011;1985;48.592;8.850;2023-07-08T05:01:09;15.70;;;6.05;;
3941;SDS011;1985;48.592;8.850;2023-07-08T05:03:35;18.80;;;7.00;;
3941;SDS011;1985;48.592;8.850;2023-07-08T05:06:00;16.75;;;6.13;;
3941;SDS011;1985;48.592;8.850;2023-07-08T05:08:26;15.13;;;6.10;;
3941;SDS011;1985;48.592;8.850;2023-07-08T05:10:52;14.03;;;5.97;;
3941;SDS011;1985;48.592;8.850;2023-07-08T05:13:17;17.50;;;6.60;;
3941;SDS011;1985;48.592;8.850;2023-07-08T05:15:43;18.80;;;6.25;;
3941;SDS011;1985;48.592;8.850;2023-07-08T05:18:09;16.00;;;6.40;;
3941;SDS011;1985;48.592;8.850;2023-07-08T05:20:34;16.70;;;5.87;;
3941;SDS011;1985;48.592;8.850;2023-07-08T05:23:01;14.30;;;5.85;;
3941;SDS011;1985;48.592;8.850;2023-07-08T05:25:30;18.58;;;6.60;;
3941;SDS011;1985;48.592;8.850;2023-07-08T05:27:57;21.55;;;6.35;;
3941;SDS011;1985;48.592;8.850;2023-07-08T05:30:23;16.13;;;5.30;;
3941;SDS011;1985;48.592;8.850;2023-07-08T05:32:48;14.50;;;5.30;;
3941;SDS011;1985;48.592;8.850;2023-07-08T05:35:14;18.02;;;6.43;;
3941;SDS011;1985;48.592;8.850;2023-07-08T05:37:40;18.67;;;6.30;;
3941;SDS011;1985;48.592;8.850;2023-07-08T05:40:09;17.77;;;6.10;;
3941;SDS011;1985;48.592;8.850;2023-07-08T05:42:35;16.73;;;6.28;;
3941;SDS011;1985;48.592;8.850;2023-07-08T05:45:02;17.05;;;6.15;;
3941;SDS011;1985;48.592;8.850;2023-07-08T05:47:29;17.80;;;6.45;;
3941;SDS011;1985;48.592;8.850;2023-07-08T05:49:54;17.27;;;6.00;;
3941;SDS011;1985;48.592;8.850;2023-07-08T05:52:20;15.35;;;5.60;;
3941;SDS011;1985;48.592;8.850;2023-07-08T05:54:45;16.65;;;6.93;;
3941;SDS011;1985;48.592;8.850;2023-07-08T05:57:11;19.30;;;6.20;;
3941;SDS011;1985;48.592;8.850;2023-07-08T05:59:37;17.88;;;6.45;;
3941;SDS011;1985;48.592;8.850;2023-07-08T06:02:03;19.85;;;5.70;;
3941;SDS011;1985;48.592;8.850;2023-07-08T06:04:29;15.57;;;6.07;;
3941;SDS011;1985;48.592;8.850;2023-07-08T06:06:56;16.70;;;6.10;;
3941;SDS011;1985;48.592;8.850;2023-07-08T06:09:21;19.27;;;7.27;;
3941;SDS011;1985;48.592;8.850;2023-07-08T06:11:47;16.77;;;5.93;;
3941;SDS011;1985;48.592;8.850;2023-07-08T06:14:12;18.30;;;6.85;;
3941;SDS011;1985;48.592;8.850;2023-07-08T06:16:38;15.35;;;5.90;;
3941;SDS011;1985;48.592;8.850;2023-07-08T06:19:03;15.68;;;6.65;;
3941;SDS011;1985;48.592;8.850;2023-07-08T06:21:29;17.97;;;7.07;;
3941;SDS011;1985;48.592;8.850;2023-07-08T06:23:55;16.70;;;7.17;;
3941;SDS011;1985;48.592;8.850;2023-07-08T06:26:20;16.13;;;6.03;;
3941;SDS011;1985;48.592;8.850;2023-07-08T06:28:46;17.80;;;7.60;;
3941;SDS011;1985;48.592;8.850;2023-07-08T06:31:11;17.33;;;7.32;;
3941;SDS011;1985;48.592;8.850;2023-07-08T06:33:37;21.50;;;8.00;;
3941;SDS011;1985;48.592;8.850;2023-07-08T06:36:03;21.57;;;7.40;;
3941;SDS011;1985;48.592;8.850;2023-07-08T06:38:29;20.45;;;7.43;;
3941;SDS011;1985;48.592;8.850;2023-07-08T06:40:55;19.47;;;8.47;;
3941;SDS011;1985;48.592;8.850;2023-07-08T06:43:20;18.40;;;8.00;;
3941;SDS011;1985;48.592;8.850;2023-07-08T06:45:46;19.60;;;7.45;;
3941;SDS011;1985;48.592;8.850;2023-07-08T06:48:11;19.40;;;7.38;;
3941;SDS011;1985;48.592;8.850;2023-07-08T06:50:37;17.33;;;6.63;;
3941;SDS011;1985;48.592;8.850;2023-07-08T06:53:03;16.85;;;6.55;;
3941;SDS011;1985;48.592;8.850;2023-07-08T06:55:29;15.55;;;6.47;;
3941;SDS011;1985;48.592;8.850;2023-07-08T06:57:55;16.13;;;6.10;;
3941;SDS011;1985;48.592;8.850;2023-07-08T07:00:20;16.17;;;6.32;;
3941;SDS011;1985;48.592;8.850;2023-07-08T07:02:46;16.52;;;6.03;;
3941;SDS011;1985;48.592;8.850;2023-07-08T07:05:12;15.60;;;6.37;;
3941;SDS011;1985;48.592;8.850;2023-07-08T07:07:37;16.83;;;6.37;;
3941;SDS011;1985;48.592;8.850;2023-07-08T07:10:03;19.70;;;5.83;;
3941;SDS011;1985;48.592;8.850;2023-07-08T07:12:29;17.80;;;6.60;;
3941;SDS011;1985;48.592;8.850;2023-07-08T07:14:55;15.90;;;6.20;;
3941;SDS011;1985;48.592;8.850;2023-07-08T07:17:21;13.07;;;4.83;;
3941;SDS011;1985;48.592;8.850;2023-07-08T07:19:48;14.43;;;5.43;;
3941;SDS011;1985;48.592;8.850;2023-07-08T07:22:14;15.57;;;5.60;;
3941;SDS011;1985;48.592;8.850;2023-07-08T07:24:40;19.20;;;6.00;;
3941;SDS011;1985;48.592;8.850;2023-07-08T07:27:06;16.80;;;5.87;;
3941;SDS011;1985;48.592;8.850;2023-07-08T07:29:45;17.42;;;6.00;;
3941;SDS011;1985;48.592;8.850;2023-07-08T07:32:16;18.73;;;7.20;;
3941;SDS011;1985;48.592;8.850;2023-07-08T07:34:42;18.30;;;6.27;;
3941;SDS011;1985;48.592;8.850;2023-07-08T07:37:11;19.60;;;6.07;;
3941;SDS011;1985;48.592;8.850;2023-07-08T07:39:39;16.27;;;6.22;;
3941;SDS011;1985;48.592;8.850;2023-07-08T07:42:05;18.17;;;7.20;;
3941;SDS011;1985;48.592;8.850;2023-07-08T07:44:31;14.20;;;6.30;;
3941;SDS011;1985;48.592;8.850;2023-07-08T07:46:56;16.33;;;6.30;;
3941;SDS011;1985;48.592;8.850;2023-07-08T07:49:22;15.10;;;5.60;;
3941;SDS011;1985;48.592;8.850;2023-07-08T07:51:48;14.48;;;5.70;;
3941;SDS011;1985;48.592;8.850;2023-07-08T07:54:13;16.60;;;6.70;;
3941;SDS011;1985;48.592;8.850;2023-07-08T07:56:40;21.23;;;6.70;;
3941;SDS011;1985;48.592;8.850;2023-07-08T07:59:05;17.15;;;6.63;;
3941;SDS011;1985;48.592;8.850;2023-07-08T08:01:31;15.82;;;6.57;;
3941;SDS011;1985;48.592;8.850;2023-07-08T08:03:57;13.90;;;5.70;;
3941;SDS011;1985;48.592;8.850;2023-07-08T08:06:22;14.33;;;5.47;;
3941;SDS011;1985;48.592;8.850;2023-07-08T08:08:48;17.55;;;6.80;;
3941;SDS011;1985;48.592;8.850;2023-07-08T08:11:14;16.52;;;6.72;;
3941;SDS011;1985;48.592;8.850;2023-07-08T08:13:40;18.50;;;6.15;;
3941;SDS011;1985;48.592;8.850;2023-07-08T08:16:07;17.20;;;7.30;;
3941;SDS011;1985;48.592;8.850;2023-07-08T08:18:32;15.38;;;6.47;;
3941;SDS011;1985;48.592;8.850;2023-07-08T08:20:58;16.10;;;5.30;;
3941;SDS011;1985;48.592;8.850;2023-07-08T08:23:24;14.60;;;5.90;;
3941;SDS011;1985;48.592;8.850;2023-07-08T08:25:50;15.00;;;5.60;;
3941;SDS011;1985;48.592;8.850;2023-07-08T08:28:16;14.15;;;5.70;;
3941;SDS011;1985;48.592;8.850;2023-07-08T08:30:41;15.80;;;6.30;;
3941;SDS011;1985;48.592;8.850;2023-07-08T08:33:11;16.52;;;5.45;;
3941;SDS011;1985;48.592;8.850;2023-07-08T08:35:36;16.20;;;5.83;;
3941;SDS011;1985;48.592;8.850;2023-07-08T08:38:03;18.60;;;5.67;;
3941;SDS011;1985;48.592;8.850;2023-07-08T08:40:29;13.43;;;4.93;;
3941;SDS011;1985;48.592;8.850;2023-07-08T08:43:03;16.65;;;4.40;;
3941;SDS011;1985;48.592;8.850;2023-07-08T08:45:33;15.50;;;5.32;;
3941;SDS011;1985;48.592;8.850;2023-07-08T08:48:05;16.73;;;5.10;;
3941;SDS011;1985;48.592;8.850;2023-07-08T08:50:47;15.57;;;4.87;;
3941;SDS011;1985;48.592;8.850;2023-07-08T08:53:20;13.48;;;4.80;;
3941;SDS011;1985;48.592;8.850;2023-07-08T08:55:49;14.45;;;4.90;;
3941;SDS011;1985;48.592;8.850;2023-07-08T09:01:01;14.70;;;4.70;;
3941;SDS011;1985;48.592;8.850;2023-07-08T09:06:15;15.07;;;4.90;;
3941;SDS011;1985;48.592;8.850;2023-07-08T09:08:46;13.60;;;5.00;;
3941;SDS011;1985;48.592;8.850;2023-07-08T09:13:55;10.73;;;3.60;;
3941;SDS011;1985;48.592;8.850;2023-07-08T09:27:03;9.75;;;2.78;;
3941;SDS011;1985;48.592;8.850;2023-07-08T09:29:30;9.57;;;2.30;;
3941;SDS011;1985;48.592;8.850;2023-07-08T09:32:00;9.38;;;2.50;;
3941;SDS011;1985;48.592;8.850;2023-07-08T09:34:54;8.80;;;2.40;;
3941;SDS011;1985;48.592;8.850;2023-07-08T09:37:34;9.85;;;2.80;;
3941;SDS011;1985;48.592;8.850;2023-07-08T09:40:21;10.70;;;2.38;;
3941;SDS011;1985;48.592;8.850;2023-07-08T09:42:55;10.45;;;2.58;;
3941;SDS011;1985;48.592;8.850;2023-07-08T09:45:25;13.38;;;2.55;;
3941;SDS011;1985;48.592;8.850;2023-07-08T09:47:55;9.45;;;2.47;;
3941;SDS011;1985;48.592;8.850;2023-07-08T09:50:26;8.68;;;2.03;;
3941;SDS011;1985;48.592;8.850;2023-07-08T09:52:55;10.88;;;2.70;;
3941;SDS011;1985;48.592;8.850;2023-07-08T09:55:23;8.80;;;1.80;;
3941;SDS011;1985;48.592;8.850;2023-07-08T09:57:50;9.30;;;1.90;;
3941;SDS011;1985;48.592;8.850;2023-07-08T10:00:19;8.50;;;2.10;;
3941;SDS011;1985;48.592;8.850;2023-07-08T10:02:52;10.25;;;1.90;;
3941;SDS011;1985;48.592;8.850;2023-07-08T10:05:27;9.68;;;2.30;;
3941;SDS011;1985;48.592;8.850;2023-07-08T10:07:57;11.70;;;2.80;;
3941;SDS011;1985;48.592;8.850;2023-07-08T10:10:45;10.40;;;3.10;;
3941;SDS011;1985;48.592;8.850;2023-07-08T10:15:45;10.20;;;2.50;;
3941;SDS011;1985;48.592;8.850;2023-07-08T10:18:15;10.10;;;2.50;;
3941;SDS011;1985;48.592;8.850;2023-07-08T10:23:18;9.02;;;2.40;;
3941;SDS011;1985;48.592;8.850;2023-07-08T10:26:08;8.93;;;2.43;;
3941;SDS011;1985;48.592;8.850;2023-07-08T10:31:55;8.70;;;2.00;;
3941;SDS011;1985;48.592;8.850;2023-07-08T10:34:44;10.93;;;2.47;;
3941;SDS011;1985;48.592;8.850;2023-07-08T10:40:10;9.02;;;2.30;;
3941;SDS011;1985;48.592;8.850;2023-07-08T10:42:51;14.88;;;3.10;;
3941;SDS011;1985;48.592;8.850;2023-07-08T10:50:51;8.23;;;2.03;;
3941;SDS011;1985;48.592;8.850;2023-07-08T10:53:28;8.00;;;2.00;;
3941;SDS011;1985;48.592;8.850;2023-07-08T10:56:20;9.47;;;2.10;;
3941;SDS011;1985;48.592;8.850;2023-07-08T11:10:16;8.05;;;1.95;;
3941;SDS011;1985;48.592;8.850;2023-07-08T11:12:49;7.93;;;1.77;;
3941;SDS011;1985;48.592;8.850;2023-07-08T11:17:58;8.98;;;2.05;;
3941;SDS011;1985;48.592;8.850;2023-07-08T11:23:43;7.30;;;1.70;;
3941;SDS011;1985;48.592;8.850;2023-07-08T11:28:32;9.18;;;2.10;;
3941;SDS011;1985;48.592;8.850;2023-07-08T11:31:04;8.43;;;1.92;;
3941;SDS011;1985;48.592;8.850;2023-07-08T11:33:31;9.27;;;2.33;;
3941;SDS011;1985;48.592;8.850;2023-07-08T11:35:58;8.00;;;1.80;;
3941;SDS011;1985;48.592;8.850;2023-07-08T11:38:28;8.67;;;2.23;;
3941;SDS011;1985;48.592;8.850;2023-07-08T11:41:00;9.50;;;2.23;;
3941;SDS011;1985;48.592;8.850;2023-07-08T11:44:03;8.32;;;2.20;;
3941;SDS011;1985;48.592;8.850;2023-07-08T11:46:24;7.80;;;1.70;;
3941;SDS011;1985;48.592;8.850;2023-07-08T11:48:53;7.97;;;1.85;;
3941;SDS011;1985;48.592;8.850;2023-07-08T11:51:41;8.77;;;1.87;;
3941;SDS011;1985;48.592;8.850;2023-07-08T11:54:27;9.30;;;2.10;;
3941;SDS011;1985;48.592;8.850;2023-07-08T11:57:06;9.40;;;1.80;;
3941;SDS011;1985;48.592;8.850;2023-07-08T11:59:41;8.07;;;2.03;;
3941;SDS011;1985;48.592;8.850;2023-07-08T12:02:12;8.03;;;1.93;;
3941;SDS011;1985;48.592;8.850;2023-07-08T12:13:05;7.90;;;1.60;;
3941;SDS011;1985;48.592;8.850;2023-07-08T12:15:37;8.63;;;1.70;;
3941;SDS011;1985;48.592;8.850;2023-07-08T12:20:35;8.43;;;1.70;;
3941;SDS011;1985;48.592;8.850;2023-07-08T12:23:14;7.70;;;1.80;;
3941;SDS011;1985;48.592;8.850;2023-07-08T12:25:43;8.00;;;1.70;;
3941;SDS011;1985;48.592;8.850;2023-07-08T12:28:09;8.48;;;1.80;;
3941;SDS011;1985;48.592;8.850;2023-07-08T12:30:37;8.40;;;1.60;;
3941;SDS011;1985;48.592;8.850;2023-07-08T12:33:03;9.38;;;2.00;;
3941;SDS011;1985;48.592;8.850;2023-07-08T12:35:37;8.23;;;1.70;;
3941;SDS011;1985;48.592;8.850;2023-07-08T12:38:04;8.67;;;1.70;;
3941;SDS011;1985;48.592;8.850;2023-07-08T12:40:40;8.60;;;1.85;;
3941;SDS011;1985;48.592;8.850;2023-07-08T12:43:07;7.75;;;1.55;;
3941;SDS011;1985;48.592;8.850;2023-07-08T12:45:37;7.60;;;1.40;;
3941;SDS011;1985;48.592;8.850;2023-07-08T12:48:03;7.93;;;1.70;;
3941;SDS011;1985;48.592;8.850;2023-07-08T12:50:29;7.90;;;1.80;;
3941;SDS011;1985;48.592;8.850;2023-07-08T12:52:54;7.60;;;1.77;;
3941;SDS011;1985;48.592;8.850;2023-07-08T12:55:21;9.40;;;1.87;;
3941;SDS011;1985;48.592;8.850;2023-07-08T12:57:49;8.40;;;1.90;;
3941;SDS011;1985;48.592;8.850;2023-07-08T13:00:29;8.40;;;1.70;;
3941;SDS011;1985;48.592;8.850;2023-07-08T13:03:05;8.73;;;1.80;;
3941;SDS011;1985;48.592;8.850;2023-07-08T13:05:47;7.90;;;1.73;;
3941;SDS011;1985;48.592;8.850;2023-07-08T13:08:15;7.35;;;1.50;;
3941;SDS011;1985;48.592;8.850;2023-07-08T13:10:43;7.40;;;1.60;;
3941;SDS011;1985;48.592;8.850;2023-07-08T13:13:12;7.50;;;1.80;;
3941;SDS011;1985;48.592;8.850;2023-07-08T13:15:42;8.98;;;1.88;;
3941;SDS011;1985;48.592;8.850;2023-07-08T13:18:17;9.55;;;1.75;;
3941;SDS011;1985;48.592;8.850;2023-07-08T13:20:52;8.43;;;1.95;;
3941;SDS011;1985;48.592;8.850;2023-07-08T13:23:19;8.63;;;1.90;;
3941;SDS011;1985;48.592;8.850;2023-07-08T13:25:50;9.60;;;1.63;;
3941;SDS011;1985;48.592;8.850;2023-07-08T13:30:51;7.97;;;1.70;;
3941;SDS011;1985;48.592;8.850;2023-07-08T13:33:18;9.10;;;1.90;;
3941;SDS011;1985;48.592;8.850;2023-07-08T13:35:44;8.83;;;2.00;;
3941;SDS011;1985;48.592;8.850;2023-07-08T13:38:18;7.50;;;1.60;;
3941;SDS011;1985;48.592;8.850;2023-07-08T13:40:53;8.18;;;1.80;;
3941;SDS011;1985;48.592;8.850;2023-07-08T13:43:24;10.20;;;1.80;;
3941;SDS011;1985;48.592;8.850;2023-07-08T13:45:51;7.70;;;1.90;;
3941;SDS011;1985;48.592;8.850;2023-07-08T13:50:55;7.80;;;1.50;;
3941;SDS011;1985;48.592;8.850;2023-07-08T13:56:13;9.05;;;2.00;;
3941;SDS011;1985;48.592;8.850;2023-07-08T13:59:04;8.15;;;1.85;;
3941;SDS011;1985;48.592;8.850;2023-07-08T14:01:33;9.63;;;1.85;;
3941;SDS011;1985;48.592;8.850;2023-07-08T14:04:00;8.65;;;1.70;;
3941;SDS011;1985;48.592;8.850;2023-07-08T14:06:29;8.52;;;1.90;;
3941;SDS011;1985;48.592;8.850;2023-07-08T14:08:57;8.27;;;1.70;;
3941;SDS011;1985;48.592;8.850;2023-07-08T14:11:25;8.20;;;1.90;;
3941;SDS011;1985;48.592;8.850;2023-07-08T14:13:51;9.60;;;1.70;;
3941;SDS011;1985;48.592;8.850;2023-07-08T14:16:29;8.63;;;1.50;;
3941;SDS011;1985;48.592;8.850;2023-07-08T14:19:00;10.00;;;1.90;;
3941;SDS011;1985;48.592;8.850;2023-07-08T14:21:29;8.15;;;1.70;;
3941;SDS011;1985;48.592;8.850;2023-07-08T14:23:55;8.38;;;1.90;;
3941;SDS011;1985;48.592;8.850;2023-07-08T14:26:21;7.73;;;1.73;;
3941;SDS011;1985;48.592;8.850;2023-07-08T14:28:47;8.40;;;1.92;;
3941;SDS011;1985;48.592;8.850;2023-07-08T14:31:14;8.20;;;1.80;;
3941;SDS011;1985;48.592;8.850;2023-07-08T14:33:43;7.70;;;1.80;;
3941;SDS011;1985;48.592;8.850;2023-07-08T14:36:09;7.50;;;1.70;;
3941;SDS011;1985;48.592;8.850;2023-07-08T14:38:36;7.43;;;1.40;;
3941;SDS011;1985;48.592;8.850;2023-07-08T14:41:02;7.88;;;1.50;;
3941;SDS011;1985;48.592;8.850;2023-07-08T14:43:28;7.67;;;1.50;;
3941;SDS011;1985;48.592;8.850;2023-07-08T14:45:56;7.00;;;1.50;;
3941;SDS011;1985;48.592;8.850;2023-07-08T14:48:23;8.05;;;1.80;;
3941;SDS011;1985;48.592;8.850;2023-07-08T14:50:50;8.47;;;2.40;;
3941;SDS011;1985;48.592;8.850;2023-07-08T14:53:16;7.40;;;1.80;;
3941;SDS011;1985;48.592;8.850;2023-07-08T14:55:44;8.50;;;2.00;;
3941;SDS011;1985;48.592;8.850;2023-07-08T14:58:31;7.20;;;1.70;;
3941;SDS011;1985;48.592;8.850;2023-07-08T15:01:14;8.32;;;1.80;;
3941;SDS011;1985;48.592;8.850;2023-07-08T15:03:43;7.75;;;1.67;;
3941;SDS011;1985;48.592;8.850;2023-07-08T15:06:12;9.90;;;2.10;;
3941;SDS011;1985;48.592;8.850;2023-07-08T15:08:38;7.90;;;1.90;;
3941;SDS011;1985;48.592;8.850;2023-07-08T15:11:04;8.03;;;1.90;;
3941;SDS011;1985;48.592;8.850;2023-07-08T15:13:33;8.32;;;1.73;;
3941;SDS011;1985;48.592;8.850;2023-07-08T15:15:59;12.60;;;2.27;;
3941;SDS011;1985;48.592;8.850;2023-07-08T15:18:25;7.72;;;1.70;;
3941;SDS011;1985;48.592;8.850;2023-07-08T15:20:51;8.20;;;1.60;;
3941;SDS011;1985;48.592;8.850;2023-07-08T15:23:17;8.97;;;1.87;;
3941;SDS011;1985;48.592;8.850;2023-07-08T15:25:44;8.30;;;1.80;;
3941;SDS011;1985;48.592;8.850;2023-07-08T15:28:15;9.27;;;1.90;;
3941;SDS011;1985;48.592;8.850;2023-07-08T15:30:45;8.73;;;1.80;;
3941;SDS011;1985;48.592;8.850;2023-07-08T15:33:12;8.50;;;1.50;;
3941;SDS011;1985;48.592;8.850;2023-07-08T15:35:40;9.20;;;2.00;;
3941;SDS011;1985;48.592;8.850;2023-07-08T15:38:07;8.10;;;1.90;;
3941;SDS011;1985;48.592;8.850;2023-07-08T15:40:33;9.00;;;1.90;;
3941;SDS011;1985;48.592;8.850;2023-07-08T15:43:00;12.05;;;2.10;;
3941;SDS011;1985;48.592;8.850;2023-07-08T15:45:28;9.60;;;1.90;;
3941;SDS011;1985;48.592;8.850;2023-07-08T15:47:57;7.68;;;1.90;;
3941;SDS011;1985;48.592;8.850;2023-07-08T15:50:23;8.60;;;1.90;;
3941;SDS011;1985;48.592;8.850;2023-07-08T15:52:51;7.72;;;1.70;;
3941;SDS011;1985;48.592;8.850;2023-07-08T15:55:20;9.43;;;1.90;;
3941;SDS011;1985;48.592;8.850;2023-07-08T16:00:36;8.68;;;2.45;;
3941;SDS011;1985;48.592;8.850;2023-07-08T16:03:09;9.25;;;2.15;;
3941;SDS011;1985;48.592;8.850;2023-07-08T16:05:37;9.25;;;2.42;;
3941;SDS011;1985;48.592;8.850;2023-07-08T16:08:03;8.57;;;2.00;;
3941;SDS011;1985;48.592;8.850;2023-07-08T16:10:29;9.98;;;2.58;;
3941;SDS011;1985;48.592;8.850;2023-07-08T16:12:55;9.07;;;1.85;;
3941;SDS011;1985;48.592;8.850;2023-07-08T16:15:43;8.10;;;1.90;;
3941;SDS011;1985;48.592;8.850;2023-07-08T16:18:09;8.50;;;2.05;;
3941;SDS011;1985;48.592;8.850;2023-07-08T16:20:37;7.93;;;2.05;;
3941;SDS011;1985;48.592;8.850;2023-07-08T16:23:02;8.23;;;1.80;;
3941;SDS011;1985;48.592;8.850;2023-07-08T16:25:32;8.33;;;2.30;;
3941;SDS011;1985;48.592;8.850;2023-07-08T16:28:01;8.20;;;2.00;;
3941;SDS011;1985;48.592;8.850;2023-07-08T16:30:28;8.60;;;1.90;;
3941;SDS011;1985;48.592;8.850;2023-07-08T16:32:54;8.40;;;2.00;;
3941;SDS011;1985;48.592;8.850;2023-07-08T16:35:20;8.13;;;1.70;;
3941;SDS011;1985;48.592;8.850;2023-07-08T16:37:47;10.18;;;1.70;;
3941;SDS011;1985;48.592;8.850;2023-07-08T16:40:18;8.77;;;1.75;;
3941;SDS011;1985;48.592;8.850;2023-07-08T16:42:49;8.32;;;2.00;;
3941;SDS011;1985;48.592;8.850;2023-07-08T16:45:18;7.97;;;1.95;;